createdAt,value
2016-06-10T00:00:18.958Z,13.05
2016-06-10T00:01:18.977Z,13.06
2016-06-10T00:02:18.980Z,13.02
2016-06-10T00:03:18.967Z,12.95
2016-06-10T00:04:18.970Z,12.94
2016-06-10T00:05:18.974Z,12.98
2016-06-10T00:06:18.976Z,12.86
2016-06-10T00:07:18.980Z,12.91
2016-06-10T00:08:18.983Z,12.84
2016-06-10T00:09:19.595Z,12.83
2016-06-10T00:10:18.973Z,12.81
2016-06-10T00:11:18.976Z,12.84
2016-06-10T00:12:18.964Z,12.76
2016-06-10T00:13:19.123Z,12.73
2016-06-10T00:14:18.970Z,12.78
2016-06-10T00:15:18.988Z,12.66
2016-06-10T00:16:18.976Z,12.51
2016-06-10T00:17:18.980Z,12.63
2016-06-10T00:18:18.967Z,12.57
2016-06-10T00:19:18.985Z,12.54
2016-06-10T00:20:18.972Z,12.54
2016-06-10T00:21:18.976Z,12.51
2016-06-10T00:22:18.838Z,12.54
2016-06-10T00:23:18.981Z,12.37
2016-06-10T00:24:19.063Z,12.36
2016-06-10T00:25:19.191Z,12.32
2016-06-10T00:26:18.991Z,12.33
2016-06-10T00:27:18.978Z,12.33
2016-06-10T00:28:18.997Z,12.33
2016-06-10T00:29:18.984Z,12.28
2016-06-10T00:30:18.987Z,12.25
2016-06-10T00:31:18.990Z,12.29
2016-06-10T00:32:18.993Z,12.23
2016-06-10T00:33:18.981Z,12.18
2016-06-10T00:34:18.985Z,12.21
2016-06-10T00:35:18.988Z,12.23
2016-06-10T00:36:18.991Z,12.11
2016-06-10T00:37:18.994Z,12.12
2016-06-10T00:38:18.997Z,12.12
2016-06-10T00:39:19.500Z,12.05
2016-06-10T00:40:19.237Z,12.03
2016-06-10T00:41:18.990Z,11.96
2016-06-10T00:42:18.993Z,12.02
2016-06-10T00:43:18.997Z,11.95
2016-06-10T00:44:18.999Z,11.89
2016-06-10T00:45:18.987Z,11.8
2016-06-10T00:46:18.991Z,11.81
2016-06-10T00:47:18.837Z,11.76
2016-06-10T00:48:18.997Z,11.77
2016-06-10T00:49:18.999Z,11.68
2016-06-10T00:50:18.987Z,11.71
2016-06-10T00:51:19.006Z,11.68
2016-06-10T00:52:18.993Z,11.7
2016-06-10T00:53:18.996Z,11.71
2016-06-10T00:54:19.030Z,11.76
2016-06-10T00:55:19.518Z,11.7
2016-06-10T00:56:19.005Z,11.67
2016-06-10T00:57:19.008Z,11.71
2016-06-10T00:58:18.995Z,11.62
2016-06-10T00:59:19.015Z,11.58
2016-06-10T01:00:19.002Z,11.53
2016-06-10T01:01:19.037Z,11.49
2016-06-10T01:02:19.008Z,11.52
2016-06-10T01:03:19.011Z,11.6
2016-06-10T01:04:18.999Z,11.53
2016-06-10T01:05:19.017Z,11.53
2016-06-10T01:06:19.020Z,11.45
2016-06-10T01:07:19.008Z,11.43
2016-06-10T01:08:19.011Z,11.43
2016-06-10T01:09:19.014Z,11.37
2016-06-10T01:10:19.018Z,11.41
2016-06-10T01:11:19.021Z,11.51
2016-06-10T01:12:19.039Z,11.38
2016-06-10T01:13:19.011Z,11.48
2016-06-10T01:14:18.858Z,11.37
2016-06-10T01:15:19.017Z,11.35
2016-06-10T01:16:19.036Z,11.38
2016-06-10T01:17:19.023Z,11.44
2016-06-10T01:18:19.026Z,11.4
2016-06-10T01:19:19.013Z,11.34
2016-06-10T01:20:19.017Z,11.34
2016-06-10T01:21:19.019Z,11.4
2016-06-10T01:22:19.022Z,11.38
2016-06-10T01:23:19.025Z,11.31
2016-06-10T01:24:19.014Z,11.35
2016-06-10T01:25:19.125Z,11.34
2016-06-10T01:26:19.035Z,11.35
2016-06-10T01:27:19.022Z,11.34
2016-06-10T01:28:19.026Z,11.34
2016-06-10T01:29:19.028Z,11.34
2016-06-10T01:30:19.047Z,11.35
2016-06-10T01:31:18.862Z,11.31
2016-06-10T01:32:19.022Z,11.35
2016-06-10T01:33:19.025Z,11.4
2016-06-10T01:34:19.028Z,11.43
2016-06-10T01:35:19.016Z,11.43
2016-06-10T01:36:19.035Z,11.45
2016-06-10T01:37:19.022Z,11.52
2016-06-10T01:38:19.025Z,11.55
2016-06-10T01:39:19.029Z,11.45
2016-06-10T01:40:19.032Z,11.52
2016-06-10T01:41:19.018Z,11.6
2016-06-10T01:42:18.881Z,11.6
2016-06-10T01:43:19.025Z,11.63
2016-06-10T01:44:19.028Z,11.63
2016-06-10T01:45:19.031Z,11.73
2016-06-10T01:46:18.893Z,11.77
2016-06-10T01:47:19.037Z,11.85
2016-06-10T01:48:19.040Z,11.78
2016-06-10T01:49:18.887Z,11.83
2016-06-10T01:50:19.030Z,11.78
2016-06-10T01:51:19.034Z,11.78
2016-06-10T01:52:19.037Z,11.85
2016-06-10T01:53:19.039Z,11.76
2016-06-10T01:54:19.028Z,11.83
2016-06-10T01:55:19.453Z,11.8
2016-06-10T01:56:19.033Z,11.8
2016-06-10T01:57:18.880Z,11.8
2016-06-10T01:58:18.883Z,11.81
2016-06-10T01:59:19.043Z,11.78
2016-06-10T02:00:19.046Z,11.77
2016-06-10T02:01:19.049Z,11.83
2016-06-10T02:02:19.036Z,11.83
2016-06-10T02:03:19.039Z,11.89
2016-06-10T02:04:19.042Z,11.89
2016-06-10T02:05:19.046Z,11.91
2016-06-10T02:06:19.048Z,11.91
2016-06-10T02:07:19.036Z,11.91
2016-06-10T02:08:19.055Z,11.93
2016-06-10T02:09:19.041Z,11.95
2016-06-10T02:10:20.045Z,11.99
2016-06-10T02:11:19.376Z,11.97
2016-06-10T02:12:19.051Z,11.96
2016-06-10T02:13:19.101Z,12.03
2016-06-10T02:14:19.042Z,12.02
2016-06-10T02:15:19.045Z,12.11
2016-06-10T02:16:19.048Z,12.12
2016-06-10T02:17:19.052Z,12.2
2016-06-10T02:18:19.038Z,12.18
2016-06-10T02:19:19.041Z,12.17
2016-06-10T02:20:19.060Z,12.25
2016-06-10T02:21:19.047Z,12.2
2016-06-10T02:22:19.051Z,12.23
2016-06-10T02:23:19.053Z,12.32
2016-06-10T02:24:19.042Z,12.26
2016-06-10T02:25:19.420Z,12.26
2016-06-10T02:26:19.063Z,12.25
2016-06-10T02:27:19.051Z,12.29
2016-06-10T02:28:19.069Z,12.32
2016-06-10T02:29:19.057Z,12.36
2016-06-10T02:30:19.061Z,12.37
2016-06-10T02:31:19.063Z,12.33
2016-06-10T02:32:18.894Z,12.35
2016-06-10T02:33:19.054Z,12.4
2016-06-10T02:34:19.057Z,12.44
2016-06-10T02:35:19.059Z,12.43
2016-06-10T02:36:19.062Z,12.48
2016-06-10T02:37:19.082Z,12.44
2016-06-10T02:38:19.107Z,12.47
2016-06-10T02:39:19.147Z,12.48
2016-06-10T02:40:19.876Z,12.43
2016-06-10T02:41:19.229Z,12.43
2016-06-10T02:42:19.260Z,12.48
2016-06-10T02:43:19.276Z,12.5
2016-06-10T02:44:19.293Z,12.45
2016-06-10T02:45:19.295Z,12.51
2016-06-10T02:46:19.343Z,12.48
2016-06-10T02:47:19.324Z,12.48
2016-06-10T02:48:19.347Z,12.47
2016-06-10T02:49:19.341Z,12.39
2016-06-10T02:50:19.191Z,12.43
2016-06-10T02:51:19.356Z,12.44
2016-06-10T02:52:19.362Z,12.45
2016-06-10T02:53:19.351Z,12.48
2016-06-10T02:54:19.356Z,12.45
2016-06-10T02:55:20.455Z,12.48
2016-06-10T02:56:19.366Z,12.4
2016-06-10T02:57:19.355Z,12.48
2016-06-10T02:58:19.358Z,12.48
2016-06-10T02:59:19.362Z,12.53
2016-06-10T03:00:19.351Z,12.5
2016-06-10T03:01:19.355Z,12.47
2016-06-10T03:02:19.374Z,12.5
2016-06-10T03:03:19.361Z,12.53
2016-06-10T03:04:19.364Z,12.47
2016-06-10T03:05:19.368Z,12.51
2016-06-10T03:06:19.385Z,12.47
2016-06-10T03:07:19.389Z,12.58
2016-06-10T03:08:19.361Z,12.47
2016-06-10T03:09:19.364Z,12.51
2016-06-10T03:10:19.289Z,12.5
2016-06-10T03:11:19.370Z,12.5
2016-06-10T03:12:19.373Z,12.5
2016-06-10T03:13:19.376Z,12.48
2016-06-10T03:14:19.396Z,12.48
2016-06-10T03:15:19.367Z,12.48
2016-06-10T03:16:19.370Z,12.47
2016-06-10T03:17:19.374Z,12.43
2016-06-10T03:18:19.376Z,12.47
2016-06-10T03:19:19.363Z,12.45
2016-06-10T03:20:19.366Z,12.43
2016-06-10T03:21:19.386Z,12.36
2016-06-10T03:22:19.373Z,12.3
2016-06-10T03:23:19.375Z,12.3
2016-06-10T03:24:19.379Z,12.25
2016-06-10T03:25:19.757Z,12.3
2016-06-10T03:26:19.385Z,12.21
2016-06-10T03:27:19.388Z,12.18
2016-06-10T03:28:19.375Z,12.18
2016-06-10T03:29:19.378Z,12.11
2016-06-10T03:30:19.382Z,12.17
2016-06-10T03:31:19.384Z,12.1
2016-06-10T03:32:19.387Z,12.15
2016-06-10T03:33:19.376Z,11.97
2016-06-10T03:34:19.378Z,11.99
2016-06-10T03:35:19.396Z,12.03
2016-06-10T03:36:19.400Z,11.96
2016-06-10T03:37:19.388Z,11.97
2016-06-10T03:38:19.391Z,12
2016-06-10T03:39:19.237Z,11.97
2016-06-10T03:40:20.647Z,11.91
2016-06-10T03:41:20.040Z,11.95
2016-06-10T03:42:19.388Z,11.99
2016-06-10T03:43:19.390Z,11.99
2016-06-10T03:44:19.394Z,11.96
2016-06-10T03:45:19.241Z,11.99
2016-06-10T03:46:19.383Z,11.99
2016-06-10T03:47:19.231Z,11.95
2016-06-10T03:48:19.390Z,11.88
2016-06-10T03:49:19.378Z,11.89
2016-06-10T03:50:19.396Z,11.93
2016-06-10T03:51:19.384Z,11.96
2016-06-10T03:52:19.387Z,12.11
2016-06-10T03:53:19.390Z,12.18
2016-06-10T03:54:19.393Z,12.32
2016-06-10T03:55:19.552Z,12.54
2016-06-10T03:56:19.947Z,12.81
2016-06-10T03:57:19.387Z,12.99
2016-06-10T03:58:19.390Z,13.16
2016-06-10T03:59:19.392Z,13.21
2016-06-10T04:00:19.396Z,13.45
2016-06-10T04:01:19.399Z,13.58
2016-06-10T04:02:19.401Z,13.71
2016-06-10T04:03:19.405Z,13.89
2016-06-10T04:04:19.252Z,14.05
2016-06-10T04:05:19.411Z,14.22
2016-06-10T04:06:19.399Z,14.44
2016-06-10T04:07:19.402Z,14.79
2016-06-10T04:08:19.405Z,15.1
2016-06-10T04:09:19.423Z,15.29
2016-06-10T04:10:19.551Z,15.47
2016-06-10T04:11:19.507Z,15.72
2016-06-10T04:12:19.418Z,15.85
2016-06-10T04:13:19.467Z,16
2016-06-10T04:14:19.407Z,15.98
2016-06-10T04:15:19.411Z,16.1
2016-06-10T04:16:19.413Z,16.34
2016-06-10T04:17:19.417Z,16.46
2016-06-10T04:18:19.420Z,16.47
2016-06-10T04:19:19.264Z,16.65
2016-06-10T04:20:19.426Z,16.76
2016-06-10T04:21:19.414Z,17.01
2016-06-10T04:22:19.416Z,17.12
2016-06-10T04:23:19.436Z,17.35
2016-06-10T04:24:19.438Z,17.72
2016-06-10T04:25:19.407Z,17.86
2016-06-10T04:26:19.789Z,18.16
2016-06-10T04:27:19.429Z,18.37
2016-06-10T04:28:19.432Z,18.61
2016-06-10T04:29:19.451Z,18.71
2016-06-10T04:30:19.438Z,18.92
2016-06-10T04:31:19.426Z,19.16
2016-06-10T04:32:19.429Z,19.37
2016-06-10T04:33:19.432Z,19.47
2016-06-10T04:34:19.450Z,19.63
2016-06-10T04:35:19.281Z,19.79
2016-06-10T04:36:19.441Z,20.07
2016-06-10T04:37:19.459Z,20.18
2016-06-10T04:38:19.462Z,20.19
2016-06-10T04:39:19.465Z,20.19
2016-06-10T04:40:19.453Z,20.18
2016-06-10T04:41:19.753Z,20.07
2016-06-10T04:42:19.475Z,20.07
2016-06-10T04:43:19.462Z,20.07
2016-06-10T04:44:19.466Z,20.19
2016-06-10T04:45:19.484Z,20.26
2016-06-10T04:46:19.472Z,20.17
2016-06-10T04:47:19.490Z,20.17
2016-06-10T04:48:19.587Z,20.1
2016-06-10T04:49:19.340Z,20.27
2016-06-10T04:50:19.499Z,20.63
2016-06-10T04:51:19.502Z,21.1
2016-06-10T04:52:19.505Z,21.38
2016-06-10T04:53:19.494Z,21.51
2016-06-10T04:54:19.511Z,21.62
2016-06-10T04:55:19.515Z,21.92
2016-06-10T04:56:19.361Z,22.04
2016-06-10T04:57:19.506Z,22.16
2016-06-10T04:58:19.524Z,22.15
2016-06-10T04:59:19.527Z,22.19
2016-06-10T05:00:19.530Z,22.23
2016-06-10T05:01:19.518Z,22.28
2016-06-10T05:02:19.521Z,22.3
2016-06-10T05:03:19.556Z,22.49
2016-06-10T05:04:19.558Z,22.67
2016-06-10T05:05:19.545Z,22.76
2016-06-10T05:06:19.548Z,22.76
2016-06-10T05:07:19.568Z,22.73
2016-06-10T05:08:19.570Z,22.77
2016-06-10T05:09:19.573Z,22.78
2016-06-10T05:10:19.561Z,22.89
2016-06-10T05:11:20.580Z,23.11
2016-06-10T05:12:19.582Z,23.06
2016-06-10T05:13:19.586Z,22.98
2016-06-10T05:14:19.589Z,22.73
2016-06-10T05:15:19.592Z,22.49
2016-06-10T05:16:19.595Z,22.44
2016-06-10T05:17:19.614Z,22.52
2016-06-10T05:18:19.601Z,22.52
2016-06-10T05:19:19.604Z,22.61
2016-06-10T05:20:19.624Z,22.59
2016-06-10T05:21:19.642Z,22.49
2016-06-10T05:22:19.629Z,22.53
2016-06-10T05:23:19.633Z,22.56
2016-06-10T05:24:19.636Z,22.74
2016-06-10T05:25:19.639Z,22.91
2016-06-10T05:26:19.501Z,23.02
2016-06-10T05:27:19.660Z,23.34
2016-06-10T05:28:19.663Z,23.56
2016-06-10T05:29:19.666Z,23.36
2016-06-10T05:30:19.669Z,23.42
2016-06-10T05:31:19.672Z,23.34
2016-06-10T05:32:19.675Z,23.55
2016-06-10T05:33:19.678Z,23.73
2016-06-10T05:34:19.681Z,23.73
2016-06-10T05:35:19.716Z,23.73
2016-06-10T05:36:19.704Z,23.84
2016-06-10T05:37:19.707Z,23.99
2016-06-10T05:38:19.710Z,23.89
2016-06-10T05:39:19.713Z,24.1
2016-06-10T05:40:19.716Z,24.24
2016-06-10T05:41:19.578Z,24.16
2016-06-10T05:42:19.737Z,23.86
2016-06-10T05:43:19.740Z,23.63
2016-06-10T05:44:19.744Z,23.37
2016-06-10T05:45:19.746Z,23.37
2016-06-10T05:46:19.749Z,23.34
2016-06-10T05:47:19.752Z,23.56
2016-06-10T05:48:19.755Z,23.73
2016-06-10T05:49:19.759Z,24.01
2016-06-10T05:50:19.762Z,24.38
2016-06-10T05:51:19.765Z,24.77
2016-06-10T05:52:19.611Z,25.06
2016-06-10T05:53:19.771Z,25.09
2016-06-10T05:54:19.774Z,25.3
2016-06-10T05:55:19.777Z,25.48
2016-06-10T05:56:20.046Z,25.88
2016-06-10T05:57:19.783Z,25.88
2016-06-10T05:58:19.786Z,25.61
2016-06-10T05:59:19.790Z,25.49
2016-06-10T06:00:19.793Z,25.48
2016-06-10T06:01:19.795Z,25.52
2016-06-10T06:02:19.798Z,25.54
2016-06-10T06:03:19.801Z,25.67
2016-06-10T06:04:19.805Z,26.11
2016-06-10T06:05:19.824Z,26.7
2016-06-10T06:06:19.810Z,26.92
2016-06-10T06:07:19.814Z,27.2
2016-06-10T06:08:19.817Z,27.03
2016-06-10T06:09:19.836Z,27.03
2016-06-10T06:10:19.808Z,27
2016-06-10T06:11:20.358Z,26.76
2016-06-10T06:12:19.829Z,26.79
2016-06-10T06:13:19.926Z,26.7
2016-06-10T06:14:19.821Z,26.24
2016-06-10T06:15:19.823Z,26.16
2016-06-10T06:16:19.671Z,26.44
2016-06-10T06:17:19.830Z,26.86
2016-06-10T06:18:19.833Z,27.2
2016-06-10T06:19:19.836Z,27.61
2016-06-10T06:20:19.839Z,27.85
2016-06-10T06:21:19.842Z,28.37
2016-06-10T06:22:19.845Z,28.75
2016-06-10T06:23:19.863Z,29.2
2016-06-10T06:24:19.851Z,29.37
2016-06-10T06:25:19.854Z,29.32
2016-06-10T06:26:20.576Z,29.34
2016-06-10T06:27:19.844Z,29.03
2016-06-10T06:28:19.692Z,28.72
2016-06-10T06:29:19.851Z,28.47
2016-06-10T06:30:19.853Z,28.38
2016-06-10T06:31:19.872Z,28.5
2016-06-10T06:32:19.860Z,28.65
2016-06-10T06:33:19.863Z,28.57
2016-06-10T06:34:19.851Z,28.2
2016-06-10T06:35:19.869Z,28.1
2016-06-10T06:36:19.872Z,28.19
2016-06-10T06:37:19.875Z,28.35
2016-06-10T06:38:19.863Z,28.72
2016-06-10T06:39:19.881Z,28.89
2016-06-10T06:40:19.869Z,29.09
2016-06-10T06:41:19.935Z,29.24
2016-06-10T06:42:19.875Z,29.64
2016-06-10T06:43:19.737Z,30.03
2016-06-10T06:44:19.882Z,30.58
2016-06-10T06:45:19.885Z,31.11
2016-06-10T06:46:19.731Z,31.32
2016-06-10T06:47:19.891Z,31.48
2016-06-10T06:48:19.894Z,31.64
2016-06-10T06:49:19.897Z,31.22
2016-06-10T06:50:19.884Z,30.65
2016-06-10T06:51:19.903Z,30.27
2016-06-10T06:52:19.891Z,30.06
2016-06-10T06:53:19.893Z,29.96
2016-06-10T06:54:19.896Z,29.47
2016-06-10T06:55:19.899Z,29.4
2016-06-10T06:56:19.761Z,29.37
2016-06-10T06:57:19.890Z,29.4
2016-06-10T06:58:19.909Z,29.37
2016-06-10T06:59:19.896Z,29.27
2016-06-10T07:00:19.898Z,29.28
2016-06-10T07:01:19.902Z,29.3
2016-06-10T07:02:19.905Z,29.47
2016-06-10T07:03:19.768Z,29.57
2016-06-10T07:04:19.911Z,29.65
2016-06-10T07:05:19.915Z,29.52
2016-06-10T07:06:19.902Z,29.5
2016-06-10T07:07:19.920Z,29.46
2016-06-10T07:08:19.909Z,29.55
2016-06-10T07:09:19.943Z,29.71
2016-06-10T07:10:19.930Z,29.95
2016-06-10T07:11:20.792Z,30.36
2016-06-10T07:12:19.936Z,30.95
2016-06-10T07:13:19.924Z,31.5
2016-06-10T07:14:19.942Z,31.81
2016-06-10T07:15:19.930Z,31.73
2016-06-10T07:16:19.933Z,31.73
2016-06-10T07:17:19.936Z,31.66
2016-06-10T07:18:19.939Z,31.6
2016-06-10T07:19:19.926Z,31.62
2016-06-10T07:20:19.929Z,31.92
2016-06-10T07:21:19.933Z,32.34
2016-06-10T07:22:19.935Z,32.75
2016-06-10T07:23:19.938Z,32.45
2016-06-10T07:24:20.129Z,32.24
2016-06-10T07:25:21.070Z,32.08
2016-06-10T07:26:19.948Z,32.08
2016-06-10T07:27:19.951Z,32.17
2016-06-10T07:28:19.938Z,32.41
2016-06-10T07:29:19.957Z,32.3
2016-06-10T07:30:19.944Z,32.82
2016-06-10T07:31:19.792Z,32.94
2016-06-10T07:32:19.794Z,33.13
2016-06-10T07:33:19.953Z,32.98
2016-06-10T07:34:19.973Z,32.81
2016-06-10T07:35:19.959Z,32.44
2016-06-10T07:36:19.962Z,32.05
2016-06-10T07:37:19.965Z,32
2016-06-10T07:38:19.954Z,32.34
2016-06-10T07:39:19.972Z,33.13
2016-06-10T07:40:19.960Z,33.76
2016-06-10T07:41:19.963Z,34.4
2016-06-10T07:42:19.966Z,34.6
2016-06-10T07:43:19.969Z,34.76
2016-06-10T07:44:19.973Z,34.28
2016-06-10T07:45:19.975Z,34
2016-06-10T07:46:19.978Z,34.04
2016-06-10T07:47:19.981Z,34.18
2016-06-10T07:48:19.984Z,34.29
2016-06-10T07:49:19.972Z,34.38
2016-06-10T07:50:19.677Z,34.47
2016-06-10T07:51:19.994Z,34.4
2016-06-10T07:52:19.980Z,34.58
2016-06-10T07:53:19.983Z,34.79
2016-06-10T07:54:19.987Z,34.82
2016-06-10T07:55:19.990Z,34.89
2016-06-10T07:56:20.196Z,34.85
2016-06-10T07:57:19.996Z,34.81
2016-06-10T07:58:20.000Z,34.75
2016-06-10T07:59:19.987Z,34.59
2016-06-10T08:00:19.990Z,34.59
2016-06-10T08:01:19.994Z,34.59
2016-06-10T08:02:19.997Z,34.46
2016-06-10T08:03:19.842Z,34.47
2016-06-10T08:04:20.003Z,34.86
2016-06-10T08:05:19.990Z,34.88
2016-06-10T08:06:20.009Z,35.04
2016-06-10T08:07:20.012Z,34.75
2016-06-10T08:08:19.999Z,34.7
2016-06-10T08:09:21.143Z,34.22
2016-06-10T08:10:19.864Z,34.03
2016-06-10T08:11:20.008Z,33.92
2016-06-10T08:12:20.011Z,33.79
2016-06-10T08:13:20.015Z,33.54
2016-06-10T08:14:20.018Z,33.2
2016-06-10T08:15:20.020Z,33.12
2016-06-10T08:16:20.024Z,33.04
2016-06-10T08:17:20.027Z,32.44
2016-06-10T08:18:20.029Z,32.16
2016-06-10T08:19:20.033Z,31.67
2016-06-10T08:20:19.880Z,31.44
2016-06-10T08:21:20.023Z,31.28
2016-06-10T08:22:20.042Z,31.47
2016-06-10T08:23:20.029Z,31.72
2016-06-10T08:24:20.314Z,32.01
2016-06-10T08:25:20.770Z,32.31
2016-06-10T08:26:20.038Z,32.81
2016-06-10T08:27:20.041Z,33.33
2016-06-10T08:28:20.044Z,33.73
2016-06-10T08:29:20.032Z,33.7
2016-06-10T08:30:19.878Z,33.72
2016-06-10T08:31:20.038Z,33.22
2016-06-10T08:32:20.057Z,33.1
2016-06-10T08:33:20.044Z,33.26
2016-06-10T08:34:19.890Z,33.63
2016-06-10T08:35:20.065Z,34.06
2016-06-10T08:36:20.038Z,33.92
2016-06-10T08:37:20.057Z,33.92
2016-06-10T08:38:20.060Z,33.88
2016-06-10T08:39:20.078Z,33.89
2016-06-10T08:40:20.081Z,33.69
2016-06-10T08:41:20.100Z,33.55
2016-06-10T08:42:20.073Z,33.38
2016-06-10T08:43:20.075Z,33.2
2016-06-10T08:44:20.062Z,33.39
2016-06-10T08:45:20.065Z,33.66
2016-06-10T08:46:20.068Z,34.03
2016-06-10T08:47:20.072Z,34.26
2016-06-10T08:48:20.169Z,34.43
2016-06-10T08:49:20.156Z,34.28
2016-06-10T08:50:20.097Z,34.04
2016-06-10T08:51:20.084Z,34
2016-06-10T08:52:20.087Z,33.98
2016-06-10T08:53:20.090Z,33.89
2016-06-10T08:54:20.077Z,33.88
2016-06-10T08:55:20.081Z,33.77
2016-06-10T08:56:20.319Z,33.97
2016-06-10T08:57:20.790Z,34.37
2016-06-10T08:58:20.122Z,34.6
2016-06-10T08:59:20.093Z,34.75
2016-06-10T09:00:20.096Z,35.01
2016-06-10T09:01:20.115Z,35.13
2016-06-10T09:02:20.087Z,35.3
2016-06-10T09:03:20.105Z,35.15
2016-06-10T09:04:20.108Z,34.98
2016-06-10T09:05:20.096Z,34.46
2016-06-10T09:06:20.100Z,34.11
2016-06-10T09:07:20.103Z,33.82
2016-06-10T09:08:20.105Z,33.55
2016-06-10T09:09:20.108Z,33.48
2016-06-10T09:10:20.111Z,33.47
2016-06-10T09:11:20.114Z,33.58
2016-06-10T09:12:20.336Z,33.77
2016-06-10T09:13:20.104Z,33.53
2016-06-10T09:14:20.108Z,33.23
2016-06-10T09:15:20.111Z,33.08
2016-06-10T09:16:20.113Z,32.91
2016-06-10T09:17:20.133Z,32.95
2016-06-10T09:18:20.136Z,33.05
2016-06-10T09:19:20.123Z,33.08
2016-06-10T09:20:20.126Z,33.16
2016-06-10T09:21:20.129Z,33.31
2016-06-10T09:22:20.132Z,33.58
2016-06-10T09:23:20.135Z,33.82
2016-06-10T09:24:20.139Z,34.06
2016-06-10T09:25:20.142Z,34.1
2016-06-10T09:26:20.145Z,34.24
2016-06-10T09:27:20.383Z,34.37
2016-06-10T09:28:20.151Z,34.47
2016-06-10T09:29:20.138Z,34.4
2016-06-10T09:30:20.173Z,34.32
2016-06-10T09:31:20.160Z,34.33
2016-06-10T09:32:20.163Z,34.47
2016-06-10T09:33:20.152Z,34.43
2016-06-10T09:34:20.154Z,34.38
2016-06-10T09:35:20.157Z,34.22
2016-06-10T09:36:20.160Z,34.19
2016-06-10T09:37:20.163Z,34.04
2016-06-10T09:38:20.166Z,33.87
2016-06-10T09:39:20.169Z,33.76
2016-06-10T09:40:20.157Z,33.55
2016-06-10T09:41:20.160Z,33.36
2016-06-10T09:42:20.225Z,33.09
2016-06-10T09:43:20.478Z,32.9
2016-06-10T09:44:20.169Z,32.79
2016-06-10T09:45:20.172Z,32.56
2016-06-10T09:46:20.175Z,32.35
2016-06-10T09:47:20.178Z,31.79
2016-06-10T09:48:20.181Z,31.32
2016-06-10T09:49:20.185Z,30.78
2016-06-10T09:50:20.188Z,30.43
2016-06-10T09:51:20.190Z,30.01
2016-06-10T09:52:20.178Z,29.68
2016-06-10T09:53:20.197Z,29.42
2016-06-10T09:54:20.044Z,29.22
2016-06-10T09:55:20.219Z,28.86
2016-06-10T09:56:20.190Z,28.59
2016-06-10T09:57:20.646Z,28.23
2016-06-10T09:58:20.196Z,27.86
2016-06-10T09:59:20.199Z,27.64
2016-06-10T10:00:20.202Z,27.29
2016-06-10T10:01:20.205Z,26.91
2016-06-10T10:02:20.208Z,26.82
2016-06-10T10:03:20.211Z,26.68
2016-06-10T10:04:20.215Z,26.59
2016-06-10T10:05:20.203Z,26.41
2016-06-10T10:06:20.206Z,26.23
2016-06-10T10:07:20.224Z,26.24
2016-06-10T10:08:20.212Z,26.18
2016-06-10T10:09:20.215Z,25.98
2016-06-10T10:10:20.233Z,25.86
2016-06-10T10:11:20.236Z,25.77
2016-06-10T10:12:20.083Z,25.66
2016-06-10T10:13:20.227Z,25.48
2016-06-10T10:14:20.230Z,25.41
2016-06-10T10:15:20.233Z,25.37
2016-06-10T10:16:20.080Z,25.3
2016-06-10T10:17:20.239Z,25.3
2016-06-10T10:18:20.070Z,25.3
2016-06-10T10:19:20.088Z,25.36
2016-06-10T10:20:20.249Z,25.44
2016-06-10T10:21:20.252Z,25.51
2016-06-10T10:22:20.097Z,25.37
2016-06-10T10:23:20.258Z,25.33
2016-06-10T10:24:20.261Z,25.11
2016-06-10T10:25:20.092Z,24.77
2016-06-10T10:26:20.251Z,24.55
2016-06-10T10:27:20.332Z,24.51
2016-06-10T10:28:20.757Z,24.69
2016-06-10T10:29:20.276Z,24.82
2016-06-10T10:30:20.247Z,24.84
2016-06-10T10:31:20.266Z,24.89
2016-06-10T10:32:20.269Z,24.97
2016-06-10T10:33:20.256Z,25.12
2016-06-10T10:34:20.276Z,25.12
2016-06-10T10:35:20.279Z,25.16
2016-06-10T10:36:20.110Z,25.24
2016-06-10T10:37:20.113Z,25.29
2016-06-10T10:38:20.272Z,25.3
2016-06-10T10:39:20.275Z,25.4
2016-06-10T10:40:20.294Z,25.52
2016-06-10T10:41:20.314Z,25.54
2016-06-10T10:42:20.317Z,25.59
2016-06-10T10:43:20.304Z,25.7
2016-06-10T10:44:20.290Z,25.83
2016-06-10T10:45:20.294Z,25.83
2016-06-10T10:46:20.297Z,25.8
2016-06-10T10:47:20.299Z,25.86
2016-06-10T10:48:20.302Z,25.76
2016-06-10T10:49:20.290Z,25.7
2016-06-10T10:50:20.153Z,25.7
2016-06-10T10:51:20.312Z,25.7
2016-06-10T10:52:20.300Z,25.67
2016-06-10T10:53:20.303Z,25.73
2016-06-10T10:54:20.165Z,25.63
2016-06-10T10:55:20.309Z,25.44
2016-06-10T10:56:20.203Z,25.4
2016-06-10T10:57:21.238Z,25.34
2016-06-10T10:58:20.413Z,25.37
2016-06-10T10:59:20.197Z,25.29
2016-06-10T11:00:20.324Z,25.36
2016-06-10T11:01:20.327Z,25.33
2016-06-10T11:02:20.314Z,25.33
2016-06-10T11:03:20.334Z,25.25
2016-06-10T11:04:20.337Z,25.16
2016-06-10T11:05:20.324Z,25.09
2016-06-10T11:06:20.187Z,25.14
2016-06-10T11:07:20.330Z,25.09
2016-06-10T11:08:20.333Z,25.07
2016-06-10T11:09:20.336Z,25.04
2016-06-10T11:10:20.339Z,25.09
2016-06-10T11:11:20.343Z,25.07
2016-06-10T11:12:20.251Z,25.16
2016-06-10T11:13:20.974Z,25.16
2016-06-10T11:14:20.336Z,25.24
2016-06-10T11:15:20.354Z,25.18
2016-06-10T11:16:20.358Z,25.33
2016-06-10T11:17:20.361Z,25.25
2016-06-10T11:18:20.364Z,25.24
2016-06-10T11:19:20.367Z,25.16
2016-06-10T11:20:20.355Z,25.03
2016-06-10T11:21:20.359Z,24.96
2016-06-10T11:22:20.377Z,24.85
2016-06-10T11:23:20.364Z,24.81
2016-06-10T11:24:20.368Z,24.78
2016-06-10T11:25:20.370Z,24.84
2016-06-10T11:26:20.374Z,24.88
2016-06-10T11:27:20.580Z,24.96
2016-06-10T11:28:21.239Z,24.94
2016-06-10T11:29:20.367Z,24.94
2016-06-10T11:30:20.385Z,24.92
2016-06-10T11:31:20.373Z,24.93
2016-06-10T11:32:20.376Z,24.96
2016-06-10T11:33:20.379Z,25.12
2016-06-10T11:34:20.398Z,25.14
2016-06-10T11:35:20.385Z,24.93
2016-06-10T11:36:20.404Z,24.92
2016-06-10T11:37:20.391Z,24.99
2016-06-10T11:38:20.394Z,24.94
2016-06-10T11:39:20.398Z,25.06
2016-06-10T11:40:20.401Z,25.06
2016-06-10T11:41:20.403Z,25.15
2016-06-10T11:42:20.406Z,25.14
2016-06-10T11:43:21.285Z,25.22
2016-06-10T11:44:20.428Z,25.22
2016-06-10T11:45:20.454Z,25.22
2016-06-10T11:46:20.512Z,25.22
2016-06-10T11:47:20.539Z,25.16
2016-06-10T11:48:20.597Z,25.11
2016-06-10T11:49:20.473Z,25.12
2016-06-10T11:50:20.631Z,25.15
2016-06-10T11:51:20.648Z,25.14
2016-06-10T11:52:20.666Z,25.16
2016-06-10T11:53:20.683Z,25.16
2016-06-10T11:54:20.712Z,25.14
2016-06-10T11:55:20.704Z,25.04
2016-06-10T11:56:20.712Z,25.14
2016-06-10T11:57:21.784Z,25.14
2016-06-10T11:58:20.448Z,25.19
2016-06-10T11:59:20.736Z,25.12
2016-06-10T12:00:20.740Z,25.09
2016-06-10T12:01:20.745Z,25.09
2016-06-10T12:02:20.736Z,25.15
2016-06-10T12:03:20.756Z,25.11
2016-06-10T12:04:20.745Z,25.11
2016-06-10T12:05:20.748Z,25.19
2016-06-10T12:06:20.767Z,25.18
2016-06-10T12:07:20.755Z,25.29
2016-06-10T12:08:20.759Z,25.21
2016-06-10T12:09:20.762Z,25.22
2016-06-10T12:10:20.765Z,25.16
2016-06-10T12:11:20.784Z,25.15
2016-06-10T12:12:20.788Z,25.14
2016-06-10T12:13:21.619Z,25.14
2016-06-10T12:14:20.780Z,25.09
2016-06-10T12:15:20.782Z,25.19
2016-06-10T12:16:20.629Z,25.11
2016-06-10T12:17:20.788Z,25.11
2016-06-10T12:18:20.776Z,25.26
2016-06-10T12:19:20.795Z,25.24
2016-06-10T12:20:20.657Z,25.16
2016-06-10T12:21:20.801Z,25.12
2016-06-10T12:22:20.647Z,25.09
2016-06-10T12:23:20.791Z,25.12
2016-06-10T12:24:20.795Z,25.07
2016-06-10T12:25:20.798Z,25.09
2016-06-10T12:26:20.816Z,25.12
2016-06-10T12:27:21.522Z,25.14
2016-06-10T12:28:20.838Z,25.04
2016-06-10T12:29:20.809Z,25.06
2016-06-10T12:30:20.813Z,25.03
2016-06-10T12:31:20.816Z,25.07
2016-06-10T12:32:20.818Z,25.16
2016-06-10T12:33:20.821Z,25.24
2016-06-10T12:34:20.825Z,25.18
2016-06-10T12:35:20.844Z,25.16
2016-06-10T12:36:20.847Z,25.16
2016-06-10T12:37:20.834Z,25.21
2016-06-10T12:38:20.821Z,25.26
2016-06-10T12:39:20.825Z,25.26
2016-06-10T12:40:20.827Z,25.24
2016-06-10T12:41:20.830Z,25.24
2016-06-10T12:42:20.833Z,25.12
2016-06-10T12:43:21.150Z,25.03
2016-06-10T12:44:20.840Z,25.04
2016-06-10T12:45:20.843Z,25.07
2016-06-10T12:46:20.846Z,24.94
2016-06-10T12:47:20.849Z,25
2016-06-10T12:48:20.868Z,24.84
2016-06-10T12:49:20.855Z,24.81
2016-06-10T12:50:20.843Z,24.71
2016-06-10T12:51:20.862Z,24.66
2016-06-10T12:52:20.864Z,24.65
2016-06-10T12:53:20.868Z,24.68
2016-06-10T12:54:20.855Z,24.81
2016-06-10T12:55:20.858Z,24.79